Aeroporto :
LOGIN :

Iscrizione | Disclaimer

   EN    FR    IT 

 










Sommario :    VFR   VFR Marginale   IFR   IFR Intensivo   IFR Molto Intensivo
Visibilità : 
Base nubi : 
>= 8 km
>= 3000ft
5 / 8 km
1000 / 3000 ft
1500m / 5 km
500 / 1000 ft
800 / 1500m
200 / 500 ft
< 800m
< 200 ft
Simboli :   Temporali  Nebbia  Neve Forte  Precipitazioni Forti  Vento > 20 kt
SIGMETs :   Varie  Temporali  Ghiacco  Turbolenza  Onda orograficha  Ceneri Vulcaniche






- Altitudine del aeroporto : 341 ft


EPMO - Modlin

ULTIMO METAR :
  • 270200Z 23010KT 5000 BR FEW005 BKN017 01/01 Q0997 R08/690194

METARs OBSOLETI :
  • 270130Z 23008KT 5000 BR FEW005 OVC017 01/01 Q0997 R08/690194
  • 270100Z 25011KT 6000 OVC005 01/01 Q0996 R08/690194
  • 270030Z 25012KT 5000 BR OVC004 01/01 Q0996 R08/690194
  • 270000Z 25012KT 6000 OVC004 01/01 Q0996 R08/690194
  • 262330Z 25010KT 6000 OVC003CB 01/01 Q0996 R08/690194

TAF TAF EPMO
Valido dal 27 a 00 ore il 28 a 00 ore UTC


262330Z 2700/2724 27008KT 9999 BKN020
TEMPO 2700/2702 4000 -RASN BKN004 BKN010
PROB40 2702/2706 SCT005 BKN014
TEMPO 2707/2715 27015G25KT -SHRA BKN015TCU
BECMG 2715/2717 VRB02KT
PROB40 2720/2724 4000 BR



MetMap, La meteo Aeronautica in un colpo d'occhio ! - Copyright ORBIFLY Dicembre 2007 - Disclaimer

ORBIFLY MET'MAP TEAM :

Programmazione e sviluppo : Alexandra Zaïnal
Concezione : Baudouin d'Aumeries
Aiuto per la programmazione : Marc-Olivier Méhu
Supporto tecnico e logistico : Manuel Goepfert
Aiuto per la traduzione : Arnaldo La Scala

Contatto : metmap@orbifly.com




FONTI E CREDITI :

   NOAA